To NAV CANADA Home Page Login to a new session Search on AWWS site Feedback and Comments Disclaimer Vers la page française équivalente Tips FAQ What's new on the site To the Forecasts and Observations / NOTAM section To "File a Flight Plan" website Publications and other links Update of the User's profile FIC Telephone Numbers My Weather Data Folder Route Weather Data Regional Weather Data Local Weather Data To the Forecasts and Observations / NOTAM section
Request Generated 09/04/2015 at 01:28:36 UTC . Weather information available at that time is displayed.

METAR/TAF

SWIFT CURRENT/SK    (show WxCam)

METAR CYYN 040100Z AUTO 01008KT 9SM CLR 15/06 A2993 RMK SLP140
DENSITY ALT 3200FT=
METAR CYYN 040000Z AUTO 01010KT 9SM OVC100 15/06 A2993 RMK SLP140
DENSITY ALT 3300FT=
SPECI CYYN 032329Z AUTO 35009G15KT 9SM BKN100 BKN120 15/06 A2993 RMK
SLP139 DENSITY ALT 3300FT=
SPECI CYYN 032319Z AUTO 35012KT 9SM -RA BKN100 BKN120 16/06 A2992 RMK
SLP138 DENSITY ALT 3300FT=
METAR CYYN 032300Z AUTO 34010G16KT 9SM BKN110 15/06 A2993 RMK SLP140
DENSITY ALT 3300FT=

TAF CYYN 032338Z 0400/0412 35012KT P6SM BKN100 TEMPO 0400/0410 P6SM
-SHRA
BECMG 0406/0408 35008KT
RMK FCST BASED ON AUTO OBS. NXT FCST BY 040600Z=
Your time UTC time
Weather data provided by Environment Canada and NAV CANADA